Alamosa, CO

8:42 PM MDT on August 22, 2014 (GMT -0600)
NE of Alamosa | Change Station
CLOSE
Current Station
Personal Weather Station
Location: Alamosa, CO
Elevation: 7556 ft
Nearby Weather Stations

Elev 7556 ft 37.52 °N, 105.85 °W | Updated 10 minutes ago

Partly Cloudy
Partly Cloudy
51.3 °F
Feels Like 51.3 °F
N
2.0
Wind Variable Wind from NE
Gusts 3.0 mph

Today
High -- | Low -- °F
--% Chance of Precip.
Yesterday
High -- | Low -- °F
Precip. -- in
6:25 AM 7:46 PM
Waning Crescent, 6% visible
Pressure 30.03 in
Visibility 10.0 miles
Clouds Few 1400 ft
Dew Point 49 °F
Humidity 92%
Rainfall 0.56 in
Snow Depth Not available.
UV 0 out of 12
Pollen 10.10 out of 12
Air Quality Not available.
Flu Activity Not available.
METAR KALS 230152Z AUTO 00000KT 10SM FEW014 12/10 A3023 RMK AO2 SLP168 T01220100

More Conditions Fewer Conditions

Pressure 30.03 in
Visibility 10.0 miles
Clouds Few 1400 ft
Dew Point 49 °F
Humidity 92%
Rainfall 0.56 in
Snow Depth Not available.
UV 0 out of 12
Pollen 10.10 out of 12
Air Quality Not available.
Flu Activity Not available.
METAR KALS 230152Z AUTO 00000KT 10SM FEW014 12/10 A3023 RMK AO2 SLP168 T01220100

More Conditions Fewer Conditions

10-Day Weather Forecast

Almanac

Astronomy

Aug. 22, 2014 Rise Set
Actual Time 6:25 AM MDT 7:46 PM MDT
Civil Twilight 5:58 AM MDT 8:13 PM MDT
Nautical Twilight 5:25 AM MDT 8:46 PM MDT
Astronomical Twilight 4:51 AM MDT 9:20 PM MDT
Moon 3:52 AM MDT (8/22) 5:55 PM MDT (8/22)
Length of Visible Light 14h 15m
Length of Day
13h 21m
Tomorrow will be 2m 12s shorter.
Waning Crescent, 6% of the Moon is Illuminated
Today
Waning Crescent
Aug 25
New
Sep 2
First Quarter
Sep 8
Full
Sep 15
Last Quarter

Today's Extremes

State Highs State Lows

Community

WunderPhotos

Upload Photos

1,746,348 photos uploaded!

WunderBlogs® & News

Nearby

Snow Depth

Station Depth Elevation
Ute Creek 0 in 10650 ft
Medano Pass 0 in 9620 ft
South Colony 0 in 10800 ft
Culebra #2 0 in 10500 ft
Apishapa 0 in 10000 ft

Earthquake Activity

City Distance Mag. Time & Date
No recent earthquake activity has been reported nearby.
Minimum magnitude displayed is 2.5.

Coastal Water Temperatures

Place Temperature
No Stations Reporting

Nearby Weather Stations